Time;durP1;ratioP1;P1;durP2;ratioP2;P2;SDS_P1;SDS_P2;PMS_P1;PMS_P2;Temp;Humidity;BMP_temperature;BMP_pressure;BME280_temperature;BME280_humidity;BME280_pressure;Samples;Min_cycle;Max_cycle;Signal;HPM_P1;HPM_P2
2023/05/21 00:02:16;;;;;;;20.42;15.65;;;12.50;99.90;;;;;;5013691;28;20048;-82
2023/05/21 00:04:45;;;;;;;18.30;14.43;;;12.40;99.90;;;;;;5024093;28;20106;-81
2023/05/21 00:07:11;;;;;;;20.10;15.43;;;12.40;99.90;;;;;;5028771;28;20040;-81
2023/05/21 00:09:37;;;;;;;23.40;15.93;;;12.50;99.90;;;;;;5046292;28;20619;-82
2023/05/21 00:12:06;;;;;;;19.08;15.75;;;12.50;99.90;;;;;;5045927;28;20065;-83
2023/05/21 00:14:31;;;;;;;25.88;15.85;;;12.50;99.90;;;;;;5045922;28;20422;-82
2023/05/21 00:16:57;;;;;;;19.02;15.18;;;12.50;99.90;;;;;;5028233;28;20049;-83
2023/05/21 00:19:23;;;;;;;22.52;16.05;;;12.40;99.90;;;;;;5046114;28;20036;-83
2023/05/21 00:21:48;;;;;;;19.80;16.00;;;12.40;99.90;;;;;;5043500;28;20075;-82
2023/05/21 00:24:14;;;;;;;18.30;14.65;;;12.30;99.90;;;;;;5028444;28;20382;-81
2023/05/21 00:26:40;;;;;;;22.27;14.65;;;12.30;99.90;;;;;;5028784;28;20025;-83
2023/05/21 00:29:05;;;;;;;22.33;15.63;;;12.40;99.90;;;;;;5028887;28;20120;-82
2023/05/21 00:31:31;;;;;;;17.40;14.13;;;12.30;99.90;;;;;;5027366;28;20041;-81
2023/05/21 00:33:56;;;;;;;18.50;13.75;;;12.30;99.90;;;;;;5028735;28;20129;-82
2023/05/21 00:36:22;;;;;;;19.23;15.23;;;12.20;99.90;;;;;;5045234;28;20035;-80
2023/05/21 00:38:49;;;;;;;22.63;15.23;;;12.20;99.90;;;;;;5045278;28;20044;-82
2023/05/21 00:41:15;;;;;;;18.08;14.52;;;12.20;99.90;;;;;;5044587;28;20116;-82
2023/05/21 00:43:41;;;;;;;19.63;15.55;;;12.20;99.90;;;;;;5011937;28;20033;-81
2023/05/21 00:46:07;;;;;;;22.02;14.57;;;12.20;99.90;;;;;;5043518;28;20036;-81
2023/05/21 00:48:33;;;;;;;20.15;14.45;;;12.20;99.90;;;;;;5027362;28;20052;-81
2023/05/21 00:50:58;;;;;;;19.67;14.18;;;12.30;99.90;;;;;;5028327;28;20025;-82
2023/05/21 00:53:24;;;;;;;20.42;13.65;;;12.20;99.90;;;;;;5028852;28;20029;-80
2023/05/21 00:55:50;;;;;;;20.05;13.80;;;12.20;99.90;;;;;;5029053;28;20432;-81
2023/05/21 00:58:16;;;;;;;17.77;13.30;;;12.10;99.90;;;;;;5044585;28;20040;-80
2023/05/21 01:00:42;;;;;;;17.80;12.80;;;12.10;99.90;;;;;;5029060;28;20037;-82
2023/05/21 01:03:08;;;;;;;18.92;13.38;;;12.10;99.90;;;;;;5027988;28;20419;-82
2023/05/21 01:05:35;;;;;;;15.75;12.73;;;12.20;99.90;;;;;;5044952;28;20045;-82
2023/05/21 01:08:00;;;;;;;18.63;12.40;;;12.20;99.90;;;;;;5039413;28;20086;-82
2023/05/21 01:10:26;;;;;;;15.65;12.00;;;12.20;99.90;;;;;;5028657;28;20688;-82
2023/05/21 01:12:51;;;;;;;21.83;12.75;;;12.20;99.90;;;;;;5043407;28;20037;-82
2023/05/21 01:15:17;;;;;;;15.85;12.15;;;12.00;99.90;;;;;;5026862;28;20529;-83
2023/05/21 01:17:44;;;;;;;17.35;13.07;;;12.10;99.90;;;;;;5027347;28;20441;-82
2023/05/21 01:20:10;;;;;;;16.13;12.35;;;12.10;99.90;;;;;;5028233;28;20048;-82
2023/05/21 01:22:40;;;;;;;15.02;11.30;;;12.10;99.90;;;;;;5042766;28;20033;-82
2023/05/21 01:25:06;;;;;;;20.15;12.68;;;12.00;99.90;;;;;;5027947;28;20468;-82
2023/05/21 01:27:32;;;;;;;14.20;11.30;;;12.00;99.90;;;;;;5043212;28;20037;-82
2023/05/21 01:29:57;;;;;;;16.60;12.00;;;12.10;99.90;;;;;;5044614;28;20033;-82
2023/05/21 01:32:28;;;;;;;19.15;11.77;;;11.90;99.90;;;;;;5027085;28;20044;-82
2023/05/21 01:35:13;;;;;;;15.63;10.73;;;11.90;99.90;;;;;;5044150;28;20094;-82
2023/05/21 01:37:58;;;;;;;14.30;10.57;;;11.90;99.90;;;;;;5012519;28;20481;-82
2023/05/21 01:40:52;;;;;;;14.68;10.23;;;11.90;99.90;;;;;;5042400;28;20037;-82
2023/05/21 01:43:17;;;;;;;12.57;10.25;;;11.90;99.90;;;;;;5034898;28;20040;-80
2023/05/21 01:45:43;;;;;;;18.15;10.23;;;11.90;99.90;;;;;;5043741;28;20037;-82
2023/05/21 01:48:08;;;;;;;14.45;10.18;;;12.00;99.90;;;;;;5027433;28;20592;-81
2023/05/21 01:50:34;;;;;;;13.60;10.70;;;12.00;99.90;;;;;;5027188;28;20112;-80
2023/05/21 01:53:02;;;;;;;12.55;10.50;;;12.00;99.90;;;;;;5038794;28;20079;-80
2023/05/21 01:55:29;;;;;;;14.32;10.32;;;11.90;99.90;;;;;;5028391;28;20033;-81
2023/05/21 01:57:55;;;;;;;12.63;10.25;;;12.00;99.90;;;;;;5027317;28;20112;-80
2023/05/21 02:00:21;;;;;;;13.63;11.68;;;12.00;99.90;;;;;;5037017;28;20075;-81
2023/05/21 02:02:47;;;;;;;13.40;10.43;;;11.90;99.90;;;;;;5011190;28;20463;-81
2023/05/21 02:05:13;;;;;;;15.18;11.32;;;12.00;99.90;;;;;;5026967;28;20117;-81
2023/05/21 02:07:39;;;;;;;17.33;11.95;;;11.90;99.90;;;;;;5043103;28;20033;-81
2023/05/21 02:10:05;;;;;;;15.85;10.80;;;11.90;99.90;;;;;;5042043;28;20029;-80
2023/05/21 02:12:31;;;;;;;14.95;11.00;;;11.80;99.90;;;;;;5040783;28;20061;-82
2023/05/21 02:15:06;;;;;;;16.90;10.23;;;11.90;99.90;;;;;;5028472;27;20397;-81
2023/05/21 02:17:32;;;;;;;12.15;9.98;;;11.90;99.90;;;;;;5025617;28;20565;-82
2023/05/21 02:20:10;;;;;;;11.60;9.25;;;11.90;99.90;;;;;;5014489;28;20027;-81
2023/05/21 02:22:39;;;;;;;11.82;9.57;;;11.90;99.90;;;;;;5009881;28;20493;-81
2023/05/21 02:25:08;;;;;;;11.80;8.75;;;11.80;99.90;;;;;;5007856;28;20444;-81
2023/05/21 02:27:37;;;;;;;13.30;8.45;;;11.90;99.90;;;;;;5015805;28;20492;-81
2023/05/21 02:30:03;;;;;;;11.00;8.27;;;11.80;99.90;;;;;;5011605;28;20026;-81
2023/05/21 02:32:30;;;;;;;10.57;9.20;;;11.90;99.90;;;;;;5007383;28;20022;-81
2023/05/21 02:34:57;;;;;;;12.00;8.90;;;11.90;99.90;;;;;;5019935;28;20080;-81
2023/05/21 02:37:24;;;;;;;10.38;9.20;;;11.90;99.90;;;;;;5022569;28;20045;-82
2023/05/21 02:39:49;;;;;;;11.75;9.25;;;11.90;99.90;;;;;;5012287;28;20500;-76
2023/05/21 02:42:15;;;;;;;11.23;8.95;;;11.90;99.90;;;;;;5009641;28;20030;-76
2023/05/21 02:44:41;;;;;;;14.20;9.68;;;11.90;99.90;;;;;;5003631;28;20044;-77
2023/05/21 02:47:09;;;;;;;13.38;9.85;;;11.80;99.90;;;;;;5022685;28;20037;-77
2023/05/21 02:49:34;;;;;;;12.00;9.25;;;11.80;99.90;;;;;;5024986;28;20114;-76
2023/05/21 02:52:00;;;;;;;11.50;9.63;;;11.80;99.90;;;;;;5009532;28;20114;-77
2023/05/21 02:54:25;;;;;;;12.38;9.13;;;11.80;99.90;;;;;;5023449;28;20489;-76
2023/05/21 02:56:51;;;;;;;13.90;10.80;;;11.80;99.90;;;;;;5007879;28;20474;-76
2023/05/21 02:59:16;;;;;;;9.98;8.65;;;11.80;99.90;;;;;;5003211;28;20142;-76
2023/05/21 03:01:43;;;;;;;15.32;9.45;;;11.80;99.90;;;;;;4996974;28;20497;-76
2023/05/21 03:04:09;;;;;;;15.40;9.55;;;11.80;99.90;;;;;;5007544;28;20551;-76
2023/05/21 03:06:35;;;;;;;20.00;10.70;;;11.70;99.90;;;;;;4993535;28;20154;-76
2023/05/21 03:09:02;;;;;;;14.40;9.65;;;11.70;99.90;;;;;;5027439;28;20038;-76
2023/05/21 03:11:27;;;;;;;12.43;9.75;;;11.70;99.90;;;;;;5008333;28;20494;-76
2023/05/21 03:13:53;;;;;;;13.02;9.93;;;11.70;99.90;;;;;;5018940;28;20048;-76
2023/05/21 03:16:18;;;;;;;13.55;9.50;;;11.70;99.90;;;;;;5002544;28;20646;-76
2023/05/21 03:18:44;;;;;;;14.48;9.10;;;11.70;99.90;;;;;;5006523;28;20030;-76
2023/05/21 03:21:12;;;;;;;11.98;9.90;;;11.70;99.90;;;;;;5002158;28;20046;-76
2023/05/21 03:23:39;;;;;;;11.65;9.88;;;11.60;99.90;;;;;;5011444;28;20113;-76
2023/05/21 03:26:04;;;;;;;14.32;10.50;;;11.60;99.90;;;;;;4998137;28;20565;-77
2023/05/21 03:28:30;;;;;;;10.05;8.32;;;11.60;99.90;;;;;;4958937;28;20030;-76
2023/05/21 03:30:55;;;;;;;13.55;10.68;;;11.60;99.90;;;;;;5005167;28;20087;-76
2023/05/21 03:33:21;;;;;;;10.65;9.55;;;11.70;99.90;;;;;;4995751;28;20490;-75
2023/05/21 03:35:47;;;;;;;13.80;10.52;;;11.60;99.90;;;;;;4991695;28;20064;-76
2023/05/21 03:38:12;;;;;;;15.70;10.25;;;11.70;99.90;;;;;;4980475;28;20022;-77
2023/05/21 03:40:38;;;;;;;16.85;10.32;;;11.60;99.90;;;;;;5022425;28;20084;-76
2023/05/21 03:43:03;;;;;;;13.75;11.25;;;11.60;99.90;;;;;;4990766;28;20030;-77
2023/05/21 03:45:29;;;;;;;13.40;10.30;;;11.60;99.90;;;;;;4996248;28;20441;-77
2023/05/21 03:47:55;;;;;;;13.77;10.93;;;11.60;99.90;;;;;;4998984;28;20707;-78
2023/05/21 03:50:20;;;;;;;10.90;9.65;;;11.60;99.90;;;;;;4991694;28;20034;-77
2023/05/21 03:52:46;;;;;;;12.68;9.98;;;11.70;99.90;;;;;;4996168;28;20053;-77
2023/05/21 03:55:11;;;;;;;11.77;10.23;;;11.60;99.90;;;;;;4982622;28;20034;-77
2023/05/21 03:57:37;;;;;;;13.00;9.75;;;11.60;99.90;;;;;;4995584;28;20038;-77
2023/05/21 04:00:04;;;;;;;14.10;10.32;;;11.70;99.90;;;;;;4988036;28;20026;-77
2023/05/21 04:02:30;;;;;;;11.88;9.60;;;11.70;99.90;;;;;;4970268;28;20104;-78
2023/05/21 04:04:55;;;;;;;15.68;11.50;;;11.80;99.90;;;;;;5004164;28;20034;-77
2023/05/21 04:07:21;;;;;;;18.02;11.43;;;11.70;99.90;;;;;;5017701;28;20030;-77
2023/05/21 04:09:47;;;;;;;13.25;10.98;;;11.70;99.90;;;;;;5019691;28;20027;-77
2023/05/21 04:12:12;;;;;;;12.60;10.30;;;11.60;99.90;;;;;;4981809;28;20082;-77
2023/05/21 04:14:38;;;;;;;15.18;10.68;;;11.70;99.90;;;;;;5006858;28;20037;-77
2023/05/21 04:17:04;;;;;;;11.48;10.05;;;11.60;99.90;;;;;;5009615;28;20041;-77
2023/05/21 04:19:32;;;;;;;12.88;10.35;;;11.70;99.90;;;;;;4991643;28;20030;-77
2023/05/21 04:21:58;;;;;;;11.57;9.93;;;11.70;99.90;;;;;;5008957;28;20698;-77
2023/05/21 04:24:24;;;;;;;12.82;10.23;;;11.70;99.90;;;;;;5007887;28;20030;-77
2023/05/21 04:26:49;;;;;;;14.18;10.20;;;11.70;99.90;;;;;;5006926;28;20037;-77
2023/05/21 04:29:19;;;;;;;13.10;10.18;;;11.70;99.90;;;;;;5006565;28;20038;-76
2023/05/21 04:31:48;;;;;;;11.38;10.07;;;11.80;99.90;;;;;;5007890;28;20997;-76
2023/05/21 04:34:16;;;;;;;12.35;10.77;;;11.80;99.90;;;;;;5006332;28;20670;-77
2023/05/21 04:36:44;;;;;;;13.25;10.35;;;11.90;99.90;;;;;;5005743;28;20548;-76
2023/05/21 04:39:13;;;;;;;12.05;10.10;;;11.90;99.90;;;;;;5001372;28;20038;-77
2023/05/21 04:41:38;;;;;;;11.63;10.38;;;11.90;99.90;;;;;;4971988;28;20038;-76
2023/05/21 04:44:06;;;;;;;13.35;10.27;;;12.00;99.90;;;;;;5006171;28;20042;-76
2023/05/21 04:46:33;;;;;;;13.38;9.98;;;12.00;99.90;;;;;;5006993;28;20482;-77
2023/05/21 04:49:01;;;;;;;13.57;10.15;;;12.10;99.90;;;;;;5013088;28;20488;-77
2023/05/21 04:51:27;;;;;;;15.02;10.13;;;12.10;99.90;;;;;;5007175;28;20041;-77
2023/05/21 04:53:53;;;;;;;14.93;10.85;;;12.10;99.90;;;;;;5010685;28;20050;-77
2023/05/21 04:56:18;;;;;;;14.93;11.63;;;12.20;99.90;;;;;;5006237;28;20030;-76
2023/05/21 04:58:44;;;;;;;12.00;9.77;;;12.10;99.90;;;;;;5003037;28;20034;-76
2023/05/21 05:01:11;;;;;;;14.75;10.13;;;12.10;99.90;;;;;;5006450;28;20045;-77
2023/05/21 05:03:37;;;;;;;12.57;10.55;;;12.20;99.90;;;;;;4994434;28;20490;-77
2023/05/21 05:06:03;;;;;;;14.35;11.07;;;12.20;99.90;;;;;;5006261;28;20041;-76
2023/05/21 05:08:29;;;;;;;15.60;11.00;;;12.30;99.90;;;;;;5009018;28;20079;-77
2023/05/21 05:10:54;;;;;;;12.30;10.52;;;12.40;99.90;;;;;;5005915;28;20128;-76
2023/05/21 05:13:20;;;;;;;13.52;10.05;;;12.50;99.90;;;;;;5004106;28;20045;-77
2023/05/21 05:15:45;;;;;;;11.95;9.98;;;12.50;99.90;;;;;;5005646;28;20038;-76
2023/05/21 05:18:11;;;;;;;10.95;9.77;;;12.50;99.90;;;;;;4988520;28;20038;-77
2023/05/21 05:20:37;;;;;;;13.60;10.25;;;12.60;99.90;;;;;;5007479;28;20037;-77
2023/05/21 05:23:02;;;;;;;20.90;11.40;;;12.70;99.90;;;;;;4979215;28;20026;-77
2023/05/21 05:25:28;;;;;;;10.13;9.02;;;12.70;99.90;;;;;;5006623;28;20026;-77
2023/05/21 05:27:53;;;;;;;14.82;10.73;;;12.80;99.90;;;;;;4986462;28;20113;-76
2023/05/21 05:30:19;;;;;;;14.55;10.80;;;12.90;99.90;;;;;;4998290;28;20049;-76
2023/05/21 05:32:45;;;;;;;14.82;11.23;;;13.00;99.90;;;;;;4990253;28;20033;-77
2023/05/21 05:35:11;;;;;;;13.25;10.45;;;13.00;99.90;;;;;;4987159;28;20118;-76
2023/05/21 05:37:37;;;;;;;15.57;10.80;;;13.10;99.90;;;;;;4963184;28;20030;-76
2023/05/21 05:40:04;;;;;;;15.57;10.55;;;13.20;99.90;;;;;;4961740;28;20034;-76
2023/05/21 05:42:29;;;;;;;20.10;12.20;;;13.20;99.90;;;;;;4984516;28;20135;-76
2023/05/21 05:44:55;;;;;;;11.13;9.77;;;13.30;99.90;;;;;;4985236;28;20054;-77
2023/05/21 05:47:20;;;;;;;12.82;10.93;;;13.40;99.90;;;;;;4969800;28;20045;-77
2023/05/21 05:49:46;;;;;;;12.15;9.85;;;13.50;99.90;;;;;;4980169;28;20037;-77
2023/05/21 05:52:12;;;;;;;13.73;11.02;;;13.60;99.90;;;;;;4986799;28;20019;-77
2023/05/21 05:54:37;;;;;;;14.43;9.75;;;13.70;99.90;;;;;;4987216;28;20026;-77
2023/05/21 05:57:03;;;;;;;12.07;9.35;;;13.70;99.90;;;;;;4989848;28;20104;-77
2023/05/21 05:59:28;;;;;;;17.33;10.20;;;13.80;99.90;;;;;;4972723;28;20161;-78
2023/05/21 06:01:54;;;;;;;13.30;10.07;;;13.90;99.90;;;;;;4972713;28;20520;-77
2023/05/21 06:04:19;;;;;;;10.60;8.13;;;14.00;99.90;;;;;;4986605;28;20053;-76
2023/05/21 06:06:46;;;;;;;13.90;9.27;;;14.10;99.90;;;;;;4985880;28;20030;-76
2023/05/21 06:09:11;;;;;;;12.38;10.15;;;14.20;99.90;;;;;;4951755;28;20499;-76
2023/05/21 06:11:37;;;;;;;13.88;11.57;;;14.30;99.90;;;;;;4972938;28;20041;-76
2023/05/21 06:14:03;;;;;;;13.75;10.43;;;14.40;99.90;;;;;;4988715;28;20569;-76
2023/05/21 06:16:32;;;;;;;12.85;10.75;;;14.50;99.90;;;;;;4973095;28;20030;-77
2023/05/21 06:18:58;;;;;;;11.25;9.27;;;14.60;99.90;;;;;;4985653;28;20034;-77
2023/05/21 06:21:24;;;;;;;13.90;11.07;;;14.70;99.90;;;;;;4972180;28;20031;-76
2023/05/21 06:23:49;;;;;;;11.95;10.38;;;14.80;99.90;;;;;;5006735;28;20022;-77
2023/05/21 06:26:15;;;;;;;12.35;9.60;;;14.90;99.90;;;;;;4995741;28;20029;-77
2023/05/21 06:28:40;;;;;;;14.25;10.05;;;15.00;99.90;;;;;;5008707;28;20030;-76
2023/05/21 06:31:06;;;;;;;13.18;10.48;;;15.10;99.90;;;;;;5008901;28;20042;-76
2023/05/21 06:33:32;;;;;;;10.43;9.32;;;15.20;99.90;;;;;;5005624;28;20041;-77
2023/05/21 06:35:57;;;;;;;12.13;10.13;;;15.30;99.90;;;;;;5000044;28;20044;-76
2023/05/21 06:38:23;;;;;;;11.45;10.18;;;15.30;99.90;;;;;;5008367;28;21866;-76
2023/05/21 06:40:49;;;;;;;14.57;10.63;;;15.50;99.90;;;;;;4992790;28;20109;-75
2023/05/21 06:43:14;;;;;;;12.70;9.90;;;15.50;99.90;;;;;;4990256;28;20793;-76
2023/05/21 06:45:40;;;;;;;13.63;11.13;;;15.50;99.90;;;;;;4991536;28;20125;-75
2023/05/21 06:48:05;;;;;;;11.05;9.60;;;15.80;99.90;;;;;;4985974;28;20034;-76
2023/05/21 06:50:31;;;;;;;11.15;10.05;;;15.90;99.90;;;;;;4982582;28;20030;-76
2023/05/21 06:52:56;;;;;;;12.80;9.98;;;16.00;99.90;;;;;;4986643;28;20120;-76
2023/05/21 06:55:22;;;;;;;19.88;10.45;;;16.20;99.90;;;;;;4986472;28;20342;-76
2023/05/21 06:57:47;;;;;;;12.75;11.27;;;16.30;99.90;;;;;;4976251;28;20072;-76
2023/05/21 07:00:13;;;;;;;12.43;10.55;;;16.40;99.90;;;;;;4988856;28;20050;-76
2023/05/21 07:02:39;;;;;;;13.93;11.07;;;16.50;99.90;;;;;;4991097;28;20049;-76
2023/05/21 07:05:05;;;;;;;14.27;10.45;;;16.70;99.90;;;;;;4990309;28;20495;-76
2023/05/21 07:07:30;;;;;;;11.70;10.38;;;16.80;99.90;;;;;;4989653;28;20026;-76
2023/05/21 07:09:56;;;;;;;13.00;10.93;;;16.90;99.90;;;;;;4991943;28;20034;-75
2023/05/21 07:12:21;;;;;;;10.45;9.35;;;17.10;99.90;;;;;;4990500;28;20692;-75
2023/05/21 07:14:47;;;;;;;12.77;11.38;;;17.30;99.90;;;;;;4988560;28;20099;-76
2023/05/21 07:17:12;;;;;;;12.77;8.23;;;17.50;99.90;;;;;;4965733;28;20113;-76
2023/05/21 07:19:38;;;;;;;13.32;10.85;;;17.70;99.90;;;;;;4984772;28;20027;-76
2023/05/21 07:22:05;;;;;;;12.77;10.25;;;17.90;99.90;;;;;;4989746;28;20078;-76
2023/05/21 07:24:31;;;;;;;13.30;10.57;;;18.10;99.90;;;;;;4988406;28;20042;-76
2023/05/21 07:26:56;;;;;;;12.38;9.15;;;18.30;99.90;;;;;;4965974;28;20042;-76
2023/05/21 07:29:22;;;;;;;13.57;10.82;;;18.50;99.90;;;;;;4983869;28;20081;-76
2023/05/21 07:31:47;;;;;;;12.05;8.95;;;18.80;99.90;;;;;;4991576;28;20125;-76
2023/05/21 07:34:13;;;;;;;12.85;10.43;;;19.00;99.90;;;;;;4991360;28;20121;-76
2023/05/21 07:36:38;;;;;;;11.70;10.48;;;19.30;99.90;;;;;;4972082;28;20057;-76
2023/05/21 07:39:04;;;;;;;12.38;10.55;;;19.40;99.90;;;;;;4986134;28;20054;-76
2023/05/21 07:41:29;;;;;;;11.77;9.68;;;19.60;99.90;;;;;;4987800;28;20026;-77
2023/05/21 07:43:55;;;;;;;13.07;9.98;;;19.80;99.90;;;;;;4972280;28;20042;-76
2023/05/21 07:46:20;;;;;;;14.60;10.07;;;19.90;99.90;;;;;;4988153;28;20121;-75
2023/05/21 07:48:47;;;;;;;12.90;10.63;;;20.00;99.90;;;;;;4980562;28;20045;-76
2023/05/21 07:51:12;;;;;;;11.35;9.07;;;20.10;99.90;;;;;;4975763;28;20038;-76
2023/05/21 07:53:38;;;;;;;19.95;11.13;;;20.00;99.90;;;;;;4989161;28;20151;-75
2023/05/21 07:56:04;;;;;;;15.13;10.32;;;20.10;99.90;;;;;;4982217;28;20061;-76
2023/05/21 07:58:29;;;;;;;12.93;10.73;;;20.20;99.90;;;;;;4979323;28;20034;-77
2023/05/21 08:00:56;;;;;;;14.77;11.18;;;20.30;99.90;;;;;;4984173;28;20038;-76
2023/05/21 08:03:21;;;;;;;13.23;9.90;;;20.30;99.90;;;;;;4971221;28;20045;-76
2023/05/21 08:05:47;;;;;;;12.95;10.65;;;20.40;99.90;;;;;;4990845;28;20030;-76
2023/05/21 08:08:15;;;;;;;13.50;10.05;;;20.50;99.90;;;;;;4990691;28;20026;-76
2023/05/21 08:10:40;;;;;;;14.05;10.63;;;20.60;99.90;;;;;;4972924;28;20031;-76
2023/05/21 08:13:06;;;;;;;12.98;10.70;;;20.70;99.90;;;;;;4970281;28;20574;-76
2023/05/21 08:15:31;;;;;;;13.98;11.75;;;21.00;99.90;;;;;;4970839;28;20389;-77
2023/05/21 08:17:57;;;;;;;12.98;11.57;;;21.10;99.90;;;;;;4989038;28;20410;-76
2023/05/21 08:20:22;;;;;;;14.65;11.95;;;21.30;99.90;;;;;;4971338;28;20117;-76
2023/05/21 08:22:48;;;;;;;14.35;12.05;;;21.40;99.90;;;;;;4985158;28;20030;-76
2023/05/21 08:25:14;;;;;;;13.93;12.43;;;21.90;99.90;;;;;;4988639;28;20113;-76
2023/05/21 08:27:40;;;;;;;13.95;12.43;;;22.00;99.20;;;;;;4972298;28;20023;-76
2023/05/21 08:30:07;;;;;;;13.18;11.68;;;22.30;98.70;;;;;;4984080;28;20034;-76
2023/05/21 08:32:32;;;;;;;13.25;11.68;;;22.40;98.90;;;;;;4986356;28;20033;-76
2023/05/21 08:34:59;;;;;;;16.13;12.07;;;22.70;98.00;;;;;;4970467;28;20042;-76
2023/05/21 08:37:25;;;;;;;11.90;10.70;;;22.80;97.70;;;;;;4990578;28;20075;-76
2023/05/21 08:39:50;;;;;;;15.63;11.90;;;23.00;97.40;;;;;;5007846;28;20367;-76
2023/05/21 08:42:40;;;;;;;14.88;12.00;;;23.20;97.40;;;;;;5006109;28;20057;-76
2023/05/21 08:45:07;;;;;;;10.68;8.73;;;23.40;96.90;;;;;;5008557;28;20029;-76
2023/05/21 08:47:36;;;;;;;14.07;12.60;;;23.50;96.70;;;;;;4996413;28;20502;-76
2023/05/21 08:50:03;;;;;;;12.40;10.10;;;23.60;96.80;;;;;;4987965;28;20045;-76
2023/05/21 08:52:32;;;;;;;10.40;9.10;;;23.80;96.40;;;;;;4990173;28;20079;-77
2023/05/21 08:54:58;;;;;;;16.67;12.10;;;23.90;96.70;;;;;;5006951;28;20042;-76
2023/05/21 08:57:24;;;;;;;15.77;12.23;;;24.40;95.80;;;;;;4989506;28;20088;-76
2023/05/21 08:59:50;;;;;;;14.93;12.13;;;24.60;94.50;;;;;;4988745;28;20118;-76
2023/05/21 09:02:17;;;;;;;13.98;12.35;;;24.70;93.80;;;;;;4988307;28;20120;-76
2023/05/21 09:04:47;;;;;;;12.55;11.30;;;24.80;93.50;;;;;;4988171;28;20037;-77
2023/05/21 09:07:13;;;;;;;12.48;11.02;;;24.80;94.10;;;;;;4990770;28;20556;-77
2023/05/21 09:09:41;;;;;;;15.10;12.73;;;24.80;94.00;;;;;;5006845;28;20038;-76
2023/05/21 09:12:07;;;;;;;15.68;12.85;;;25.10;93.40;;;;;;4987460;28;20038;-76
2023/05/21 09:14:32;;;;;;;14.88;12.82;;;25.40;92.80;;;;;;4971473;28;20490;-76
2023/05/21 09:16:58;;;;;;;16.88;12.95;;;25.60;92.50;;;;;;4981426;28;20501;-77
2023/05/21 09:19:23;;;;;;;14.18;12.15;;;25.60;93.10;;;;;;4983466;28;20027;-77
2023/05/21 09:21:52;;;;;;;13.25;9.88;;;25.90;93.10;;;;;;4971808;28;20026;-76
2023/05/21 09:24:19;;;;;;;16.30;12.45;;;26.20;92.00;;;;;;4983427;28;20375;-76
2023/05/21 09:26:45;;;;;;;16.10;13.63;;;26.50;91.40;;;;;;4980771;28;20431;-77
2023/05/21 09:29:12;;;;;;;14.25;12.48;;;26.60;91.50;;;;;;4972884;28;20104;-77
2023/05/21 09:31:46;;;;;;;16.52;13.88;;;26.60;89.00;;;;;;4982174;28;20035;-77
2023/05/21 09:34:13;;;;;;;14.32;12.80;;;26.80;88.70;;;;;;4982648;28;20453;-77
2023/05/21 09:36:38;;;;;;;13.02;11.27;;;26.90;87.90;;;;;;4981950;28;20545;-77
2023/05/21 09:39:04;;;;;;;15.70;12.75;;;26.90;87.70;;;;;;4968555;28;20039;-77
2023/05/21 09:41:34;;;;;;;14.95;12.60;;;27.00;87.20;;;;;;4989620;28;20030;-77
2023/05/21 09:44:03;;;;;;;14.20;12.77;;;27.20;85.40;;;;;;4990210;28;20042;-77
2023/05/21 09:46:41;;;;;;;19.08;15.55;;;27.20;87.00;;;;;;4996194;28;20041;-77
2023/05/21 09:49:06;;;;;;;17.35;13.23;;;27.30;85.50;;;;;;4990901;28;20619;-77
2023/05/21 09:51:32;;;;;;;18.55;14.07;;;27.40;84.30;;;;;;4991539;28;20030;-78
2023/05/21 09:53:58;;;;;;;15.95;13.68;;;27.50;85.00;;;;;;4988500;28;20128;-77
2023/05/21 09:56:28;;;;;;;15.13;12.48;;;27.50;85.10;;;;;;4985012;28;20025;-77
2023/05/21 09:59:03;;;;;;;17.50;12.45;;;27.70;85.00;;;;;;4984852;28;20494;-77
2023/05/21 10:01:30;;;;;;;17.53;14.40;;;28.00;83.80;;;;;;4992386;28;20034;-77
2023/05/21 10:03:59;;;;;;;15.27;13.68;;;28.20;82.70;;;;;;4987425;28;20266;-77
2023/05/21 10:06:28;;;;;;;16.58;14.50;;;28.30;81.50;;;;;;5005560;28;20037;-77
2023/05/21 10:08:55;;;;;;;16.20;14.45;;;28.50;80.80;;;;;;5015757;28;20072;-77
2023/05/21 10:11:29;;;;;;;16.67;14.65;;;28.50;80.90;;;;;;5007849;28;20041;-77
2023/05/21 10:13:59;;;;;;;16.13;13.98;;;28.70;80.10;;;;;;4989681;28;20053;-76
2023/05/21 10:16:25;;;;;;;16.90;14.38;;;28.80;80.20;;;;;;5024260;28;20467;-77
2023/05/21 10:18:53;;;;;;;17.05;14.52;;;29.00;78.30;;;;;;5011766;28;20126;-77
2023/05/21 10:21:19;;;;;;;16.35;14.68;;;29.00;79.00;;;;;;4996189;28;20037;-77
2023/05/21 10:23:44;;;;;;;16.77;14.95;;;28.90;78.30;;;;;;4984321;28;20034;-77
2023/05/21 10:26:10;;;;;;;18.38;14.05;;;29.10;77.10;;;;;;4981743;28;20088;-77
2023/05/21 10:28:35;;;;;;;13.63;11.30;;;29.10;78.10;;;;;;4982530;28;20114;-77
2023/05/21 10:31:01;;;;;;;20.15;14.07;;;28.90;79.00;;;;;;4985015;28;20030;-77
2023/05/21 10:33:26;;;;;;;19.05;15.10;;;29.00;79.00;;;;;;4976835;28;20049;-77
2023/05/21 10:35:52;;;;;;;15.25;13.35;;;29.10;77.40;;;;;;5009488;28;20497;-76
2023/05/21 10:38:19;;;;;;;18.50;13.38;;;29.20;77.60;;;;;;5007933;28;20125;-77
2023/05/21 10:40:45;;;;;;;14.95;13.35;;;29.30;76.40;;;;;;5000572;28;20034;-76
2023/05/21 10:43:35;;;;;;;16.45;14.07;;;29.50;76.90;;;;;;4988012;28;20034;-77
2023/05/21 10:46:24;;;;;;;17.00;14.55;;;29.60;75.30;;;;;;5011421;28;20040;-77
2023/05/21 10:49:11;;;;;;;18.77;15.45;;;29.70;73.10;;;;;;5009152;28;20030;-76
2023/05/21 10:52:01;;;;;;;18.17;14.38;;;29.70;73.90;;;;;;5010072;28;20029;-78
2023/05/21 10:54:35;;;;;;;17.40;15.60;;;29.50;73.70;;;;;;5010016;28;20042;-78
2023/05/21 10:57:40;;;;;;;15.75;14.00;;;29.50;73.20;;;;;;5011081;28;20481;-77
2023/05/21 11:00:06;;;;;;;15.90;14.25;;;29.50;72.90;;;;;;5006479;28;20038;-78
2023/05/21 11:02:32;;;;;;;15.27;13.52;;;29.50;73.50;;;;;;5012188;28;20038;-78
2023/05/21 11:04:58;;;;;;;15.82;14.27;;;29.50;73.50;;;;;;5005694;28;20394;-78
2023/05/21 11:07:46;;;;;;;15.98;14.27;;;29.70;73.60;;;;;;4992094;28;20034;-78
2023/05/21 11:10:34;;;;;;;17.63;14.95;;;29.90;73.50;;;;;;5018740;28;20458;-78
2023/05/21 11:13:11;;;;;;;16.13;14.05;;;30.20;72.60;;;;;;4986481;28;20089;-78
2023/05/21 11:15:58;;;;;;;17.65;15.38;;;30.20;71.80;;;;;;5007205;28;20036;-78
2023/05/21 11:18:32;;;;;;;15.70;13.85;;;30.20;71.80;;;;;;5007547;28;20053;-77
2023/05/21 11:21:13;;;;;;;12.57;11.38;;;30.30;72.40;;;;;;4999724;28;20500;-77
2023/05/21 11:23:57;;;;;;;14.48;12.73;;;30.50;72.20;;;;;;4998359;28;20022;-76
2023/05/21 11:26:25;;;;;;;15.73;14.13;;;30.70;72.30;;;;;;5001682;28;20029;-76
2023/05/21 11:29:03;;;;;;;22.02;16.42;;;30.90;72.50;;;;;;4981983;28;20027;-77
2023/05/21 11:31:36;;;;;;;18.08;14.57;;;31.20;71.10;;;;;;4992368;28;20064;-76
2023/05/21 11:34:11;;;;;;;19.73;14.75;;;31.30;71.10;;;;;;5005899;28;20474;-77
2023/05/21 11:36:37;;;;;;;17.50;15.80;;;31.50;70.40;;;;;;5019118;28;20080;-78
2023/05/21 11:39:22;;;;;;;19.00;15.65;;;31.50;70.30;;;;;;4999646;28;20048;-77
2023/05/21 11:41:58;;;;;;;12.52;11.32;;;31.70;68.70;;;;;;4992899;28;20042;-77
2023/05/21 11:44:39;;;;;;;15.95;14.23;;;31.70;69.60;;;;;;4966206;28;20060;-76
2023/05/21 11:47:17;;;;;;;16.63;14.30;;;31.80;70.70;;;;;;5011614;28;20030;-76
2023/05/21 11:49:43;;;;;;;20.88;16.90;;;32.20;68.30;;;;;;5005637;28;20033;-77
2023/05/21 11:52:09;;;;;;;17.45;15.38;;;32.60;66.60;;;;;;4991169;28;20162;-77
2023/05/21 11:54:47;;;;;;;17.38;15.57;;;32.90;65.40;;;;;;5009679;28;20316;-76
2023/05/21 11:57:17;;;;;;;15.40;13.80;;;32.70;66.30;;;;;;5009288;28;20556;-76
2023/05/21 11:59:46;;;;;;;13.80;12.40;;;32.70;66.50;;;;;;5009849;28;20041;-76
2023/05/21 12:02:15;;;;;;;12.88;11.48;;;32.70;65.40;;;;;;4990171;28;20049;-77
2023/05/21 12:04:41;;;;;;;17.80;15.85;;;32.70;64.60;;;;;;5004836;28;20126;-77
2023/05/21 12:07:07;;;;;;;17.55;15.73;;;32.60;64.60;;;;;;4990723;28;20057;-77
2023/05/21 12:09:42;;;;;;;15.73;13.93;;;32.30;65.90;;;;;;5009272;28;20037;-77
2023/05/21 12:12:08;;;;;;;18.73;16.88;;;32.60;65.50;;;;;;4994096;28;20118;-77
2023/05/21 12:14:37;;;;;;;19.52;15.55;;;32.70;65.10;;;;;;4965920;28;20125;-77
2023/05/21 12:17:03;;;;;;;19.27;16.60;;;32.70;65.10;;;;;;5017887;28;20031;-76
2023/05/21 12:19:33;;;;;;;19.25;15.95;;;32.80;63.00;;;;;;4986714;28;20030;-77
2023/05/21 12:22:02;;;;;;;18.17;16.33;;;32.80;64.30;;;;;;5004438;28;20061;-76
2023/05/21 12:24:28;;;;;;;17.92;16.08;;;32.90;61.90;;;;;;4960169;28;20495;-76
2023/05/21 12:26:54;;;;;;;16.08;14.43;;;32.90;62.60;;;;;;4990212;28;20041;-76
2023/05/21 12:29:22;;;;;;;17.30;14.95;;;32.90;63.90;;;;;;4989906;28;20510;-76
2023/05/21 12:31:48;;;;;;;17.65;15.85;;;33.00;62.90;;;;;;4989610;28;20035;-76